sensor_id;sensor_type;location;lat;lon;timestamp;pressure;altitude;pressure_sealevel;temperature;humidity
75192;BME280;63771;52.580;9.734;2023-04-03T00:00:12;102834.81;;;0.10;77.80
75192;BME280;63771;52.580;9.734;2023-04-03T00:02:37;102837.31;;;0.10;78.01
75192;BME280;63771;52.580;9.734;2023-04-03T00:05:03;102837.31;;;0.10;78.24
75192;BME280;63771;52.580;9.734;2023-04-03T00:07:29;102846.22;;;0.08;77.91
75192;BME280;63771;52.580;9.734;2023-04-03T00:09:55;102855.34;;;0.07;78.09
75192;BME280;63771;52.580;9.734;2023-04-03T00:12:20;102849.13;;;0.05;77.94
75192;BME280;63771;52.580;9.734;2023-04-03T00:14:45;102845.06;;;0.06;78.26
75192;BME280;63771;52.580;9.734;2023-04-03T00:17:11;102846.91;;;0.07;78.18
75192;BME280;63771;52.580;9.734;2023-04-03T00:19:36;102852.09;;;0.03;78.29
75192;BME280;63771;52.580;9.734;2023-04-03T00:22:01;102861.00;;;0.01;78.35
75192;BME280;63771;52.580;9.734;2023-04-03T00:24:27;102849.97;;;-0.06;78.66
75192;BME280;63771;52.580;9.734;2023-04-03T00:26:52;102853.84;;;-0.08;78.96
75192;BME280;63771;52.580;9.734;2023-04-03T00:29:17;102856.34;;;-0.08;78.65
75192;BME280;63771;52.580;9.734;2023-04-03T00:31:43;102860.31;;;0.02;78.73
75192;BME280;63771;52.580;9.734;2023-04-03T00:34:08;102859.34;;;-0.05;78.51
75192;BME280;63771;52.580;9.734;2023-04-03T00:36:33;102859.53;;;-0.09;78.38
75192;BME280;63771;52.580;9.734;2023-04-03T00:38:58;102854.66;;;-0.18;78.70
75192;BME280;63771;52.580;9.734;2023-04-03T00:41:24;102867.19;;;-0.18;78.97
75192;BME280;63771;52.580;9.734;2023-04-03T00:43:50;102866.44;;;-0.23;79.13
75192;BME280;63771;52.580;9.734;2023-04-03T00:46:16;102868.69;;;-0.30;79.47
75192;BME280;63771;52.580;9.734;2023-04-03T00:48:44;102872.94;;;-0.35;79.53
75192;BME280;63771;52.580;9.734;2023-04-03T00:51:13;102868.84;;;-0.34;79.97
75192;BME280;63771;52.580;9.734;2023-04-03T00:53:43;102871.72;;;-0.42;79.90
75192;BME280;63771;52.580;9.734;2023-04-03T00:56:13;102879.91;;;-0.43;79.96
75192;BME280;63771;52.580;9.734;2023-04-03T00:59:08;102882.19;;;-0.45;80.34
75192;BME280;63771;52.580;9.734;2023-04-03T01:01:36;102874.84;;;-0.49;80.66
75192;BME280;63771;52.580;9.734;2023-04-03T01:04:03;102878.94;;;-0.49;80.53
75192;BME280;63771;52.580;9.734;2023-04-03T01:06:35;102882.97;;;-0.56;80.41
75192;BME280;63771;52.580;9.734;2023-04-03T01:09:02;102883.38;;;-0.58;80.28
75192;BME280;63771;52.580;9.734;2023-04-03T01:11:27;102880.66;;;-0.60;80.72
75192;BME280;63771;52.580;9.734;2023-04-03T01:13:53;102886.22;;;-0.51;80.62
75192;BME280;63771;52.580;9.734;2023-04-03T01:16:18;102878.94;;;-0.49;80.45
75192;BME280;63771;52.580;9.734;2023-04-03T01:18:45;102879.19;;;-0.48;80.34
75192;BME280;63771;52.580;9.734;2023-04-03T01:21:38;102882.97;;;-0.56;80.44
75192;BME280;63771;52.580;9.734;2023-04-03T01:24:42;102882.06;;;-0.56;80.68
75192;BME280;63771;52.580;9.734;2023-04-03T01:27:09;102883.22;;;-0.54;80.20
75192;BME280;63771;52.580;9.734;2023-04-03T01:29:35;102880.81;;;-0.64;80.14
75192;BME280;63771;52.580;9.734;2023-04-03T01:32:03;102883.09;;;-0.65;80.63
75192;BME280;63771;52.580;9.734;2023-04-03T01:34:29;102880.13;;;-0.63;80.64
75192;BME280;63771;52.580;9.734;2023-04-03T01:37:00;102880.81;;;-0.64;80.64
75192;BME280;63771;52.580;9.734;2023-04-03T01:39:26;102880.13;;;-0.63;79.97
75192;BME280;63771;52.580;9.734;2023-04-03T01:41:51;102881.66;;;-0.69;80.50
75192;BME280;63771;52.580;9.734;2023-04-03T01:44:17;102882.97;;;-0.76;80.85
75192;BME280;63771;52.580;9.734;2023-04-03T01:46:42;102890.41;;;-0.82;81.13
75192;BME280;63771;52.580;9.734;2023-04-03T01:49:08;102891.25;;;-0.87;80.95
75192;BME280;63771;52.580;9.734;2023-04-03T01:51:33;102890.56;;;-0.86;81.50
75192;BME280;63771;52.580;9.734;2023-04-03T01:53:58;102894.44;;;-0.88;81.49
75192;BME280;63771;52.580;9.734;2023-04-03T01:56:24;102895.75;;;-0.90;81.43
75192;BME280;63771;52.580;9.734;2023-04-03T01:58:50;102895.28;;;-0.93;81.75
75192;BME280;63771;52.580;9.734;2023-04-03T02:01:15;102899.78;;;-0.96;81.95
75192;BME280;63771;52.580;9.734;2023-04-03T02:03:41;102902.44;;;-1.00;81.99
75192;BME280;63771;52.580;9.734;2023-04-03T02:06:06;102896.44;;;-1.07;82.15
75192;BME280;63771;52.580;9.734;2023-04-03T02:08:31;102907.53;;;-1.10;82.28
75192;BME280;63771;52.580;9.734;2023-04-03T02:10:57;102899.31;;;-1.15;82.72
75192;BME280;63771;52.580;9.734;2023-04-03T02:13:22;102903.66;;;-1.14;83.25
75192;BME280;63771;52.580;9.734;2023-04-03T02:15:47;102905.88;;;-1.15;83.15
75192;BME280;63771;52.580;9.734;2023-04-03T02:18:13;102906.31;;;-1.18;83.15
75192;BME280;63771;52.580;9.734;2023-04-03T02:20:39;102902.38;;;-1.21;83.36
75192;BME280;63771;52.580;9.734;2023-04-03T02:23:05;102905.31;;;-1.24;83.58
75192;BME280;63771;52.580;9.734;2023-04-03T02:25:31;102902.53;;;-1.25;83.40
75192;BME280;63771;52.580;9.734;2023-04-03T02:27:56;102907.06;;;-1.28;83.44
75192;BME280;63771;52.580;9.734;2023-04-03T02:30:21;102902.47;;;-1.31;83.70
75192;BME280;63771;52.580;9.734;2023-04-03T02:32:47;102906.31;;;-1.33;84.00
75192;BME280;63771;52.580;9.734;2023-04-03T02:35:12;102907.47;;;-1.31;83.92
75192;BME280;63771;52.580;9.734;2023-04-03T02:37:38;102909.66;;;-1.38;83.71
75192;BME280;63771;52.580;9.734;2023-04-03T02:40:04;102917.69;;;-1.35;84.35
75192;BME280;63771;52.580;9.734;2023-04-03T02:42:30;102913.22;;;-1.42;84.18
75192;BME280;63771;52.580;9.734;2023-04-03T02:44:55;102912.31;;;-1.42;84.19
75192;BME280;63771;52.580;9.734;2023-04-03T02:47:21;102916.75;;;-1.36;84.64
75192;BME280;63771;52.580;9.734;2023-04-03T02:49:46;102908.66;;;-1.44;84.76
75192;BME280;63771;52.580;9.734;2023-04-03T02:52:13;102919.66;;;-1.38;84.47
75192;BME280;63771;52.580;9.734;2023-04-03T02:54:38;102915.72;;;-1.42;84.37
75192;BME280;63771;52.580;9.734;2023-04-03T02:57:03;102916.91;;;-1.40;84.56
75192;BME280;63771;52.580;9.734;2023-04-03T02:59:29;102911.47;;;-1.37;84.43
75192;BME280;63771;52.580;9.734;2023-04-03T03:01:54;102913.97;;;-1.37;84.44
75192;BME280;63771;52.580;9.734;2023-04-03T03:04:20;102913.50;;;-1.25;84.44
75192;BME280;63771;52.580;9.734;2023-04-03T03:06:46;102921.34;;;-1.18;84.02
75192;BME280;63771;52.580;9.734;2023-04-03T03:09:12;102918.50;;;-1.25;84.26
75192;BME280;63771;52.580;9.734;2023-04-03T03:11:38;102922.91;;;-1.34;84.34
75192;BME280;63771;52.580;9.734;2023-04-03T03:14:04;102919.16;;;-1.26;84.56
75192;BME280;63771;52.580;9.734;2023-04-03T03:16:30;102923.00;;;-1.28;84.67
75192;BME280;63771;52.580;9.734;2023-04-03T03:18:55;102920.81;;;-1.36;84.59
75192;BME280;63771;52.580;9.734;2023-04-03T03:21:20;102915.66;;;-1.32;84.71
75192;BME280;63771;52.580;9.734;2023-04-03T03:23:46;102917.69;;;-1.35;84.43
75192;BME280;63771;52.580;9.734;2023-04-03T03:26:11;102902.97;;;-1.43;84.72
75192;BME280;63771;52.580;9.734;2023-04-03T03:28:38;102914.13;;;-1.41;84.77
75192;BME280;63771;52.580;9.734;2023-04-03T03:31:04;102917.84;;;-1.39;84.85
75192;BME280;63771;52.580;9.734;2023-04-03T03:33:30;102922.25;;;-1.33;84.81
75192;BME280;63771;52.580;9.734;2023-04-03T03:35:56;102912.16;;;-1.38;84.89
75192;BME280;63771;52.580;9.734;2023-04-03T03:38:22;102924.00;;;-1.37;84.81
75192;BME280;63771;52.580;9.734;2023-04-03T03:40:49;102923.00;;;-1.43;84.97
75192;BME280;63771;52.580;9.734;2023-04-03T03:43:15;102926.16;;;-1.44;85.16
75192;BME280;63771;52.580;9.734;2023-04-03T03:45:40;102917.00;;;-1.49;84.97
75192;BME280;63771;52.580;9.734;2023-04-03T03:48:06;102921.16;;;-1.44;85.38
75192;BME280;63771;52.580;9.734;2023-04-03T03:50:31;102922.75;;;-1.45;85.64
75192;BME280;63771;52.580;9.734;2023-04-03T03:52:57;102923.59;;;-1.50;85.73
75192;BME280;63771;52.580;9.734;2023-04-03T03:55:22;102923.50;;;-1.55;85.48
75192;BME280;63771;52.580;9.734;2023-04-03T03:57:47;102918.50;;;-1.55;85.90
75192;BME280;63771;52.580;9.734;2023-04-03T04:00:13;102921.00;;;-1.55;85.75
75192;BME280;63771;52.580;9.734;2023-04-03T04:02:39;102926.25;;;-1.54;86.02
75192;BME280;63771;52.580;9.734;2023-04-03T04:05:04;102929.81;;;-1.58;85.81
75192;BME280;63771;52.580;9.734;2023-04-03T04:07:30;102921.72;;;-1.66;85.70
75192;BME280;63771;52.580;9.734;2023-04-03T04:09:55;102931.47;;;-1.68;85.70
75192;BME280;63771;52.580;9.734;2023-04-03T04:12:21;102930.31;;;-1.70;85.63
75192;BME280;63771;52.580;9.734;2023-04-03T04:14:46;102923.88;;;-1.73;85.89
75192;BME280;63771;52.580;9.734;2023-04-03T04:17:12;102930.44;;;-1.74;86.10
75192;BME280;63771;52.580;9.734;2023-04-03T04:19:38;102934.06;;;-1.77;86.25
75192;BME280;63771;52.580;9.734;2023-04-03T04:22:03;102934.97;;;-1.77;86.26
75192;BME280;63771;52.580;9.734;2023-04-03T04:24:28;102935.88;;;-1.76;86.44
75192;BME280;63771;52.580;9.734;2023-04-03T04:26:54;102931.28;;;-1.79;86.59
75192;BME280;63771;52.580;9.734;2023-04-03T04:29:19;102938.53;;;-1.80;86.50
75192;BME280;63771;52.580;9.734;2023-04-03T04:31:44;102951.97;;;-1.80;86.49
75192;BME280;63771;52.580;9.734;2023-04-03T04:34:10;102936.09;;;-1.90;86.54
75192;BME280;63771;52.580;9.734;2023-04-03T04:36:35;102951.63;;;-1.87;86.52
75192;BME280;63771;52.580;9.734;2023-04-03T04:39:01;102947.78;;;-1.85;86.82
75192;BME280;63771;52.580;9.734;2023-04-03T04:41:26;102948.84;;;-1.89;86.92
75192;BME280;63771;52.580;9.734;2023-04-03T04:43:52;102951.09;;;-1.90;87.18
75192;BME280;63771;52.580;9.734;2023-04-03T04:46:18;102961.03;;;-1.80;87.49
75192;BME280;63771;52.580;9.734;2023-04-03T04:48:44;102963.19;;;-1.88;87.26
75192;BME280;63771;52.580;9.734;2023-04-03T04:51:10;102963.19;;;-1.88;87.41
75192;BME280;63771;52.580;9.734;2023-04-03T04:53:35;102962.44;;;-1.92;87.44
75192;BME280;63771;52.580;9.734;2023-04-03T04:56:01;102965.56;;;-1.93;87.59
75192;BME280;63771;52.580;9.734;2023-04-03T04:58:26;102969.94;;;-1.92;88.01
75192;BME280;63771;52.580;9.734;2023-04-03T05:01:05;102975.56;;;-1.93;88.13
75192;BME280;63771;52.580;9.734;2023-04-03T05:03:32;102972.72;;;-2.00;88.00
75192;BME280;63771;52.580;9.734;2023-04-03T05:05:58;102970.91;;;-2.01;88.10
75192;BME280;63771;52.580;9.734;2023-04-03T05:08:23;102972.63;;;-2.06;88.26
75192;BME280;63771;52.580;9.734;2023-04-03T05:10:49;102964.59;;;-2.09;88.22
75192;BME280;63771;52.580;9.734;2023-04-03T05:13:15;102968.03;;;-2.08;88.42
75192;BME280;63771;52.580;9.734;2023-04-03T05:15:40;102977.09;;;-2.09;88.51
75192;BME280;63771;52.580;9.734;2023-04-03T05:18:06;102976.84;;;-2.11;88.57
75192;BME280;63771;52.580;9.734;2023-04-03T05:20:32;102983.69;;;-2.10;88.47
75192;BME280;63771;52.580;9.734;2023-04-03T05:22:58;102978.03;;;-2.08;88.13
75192;BME280;63771;52.580;9.734;2023-04-03T05:25:23;102975.13;;;-2.06;88.46
75192;BME280;63771;52.580;9.734;2023-04-03T05:27:49;102976.72;;;-2.06;88.21
75192;BME280;63771;52.580;9.734;2023-04-03T05:30:15;102991.44;;;-1.98;88.34
75192;BME280;63771;52.580;9.734;2023-04-03T05:32:41;102993.75;;;-1.94;88.51
75192;BME280;63771;52.580;9.734;2023-04-03T05:35:08;102975.56;;;-1.93;88.29
75192;BME280;63771;52.580;9.734;2023-04-03T05:37:33;102988.81;;;-1.79;87.94
75192;BME280;63771;52.580;9.734;2023-04-03T05:39:59;102996.06;;;-1.80;88.05
75192;BME280;63771;52.580;9.734;2023-04-03T05:42:24;103002.09;;;-1.74;88.45
75192;BME280;63771;52.580;9.734;2023-04-03T05:44:50;102996.69;;;-1.72;88.00
75192;BME280;63771;52.580;9.734;2023-04-03T05:47:16;103010.34;;;-1.70;88.02
75192;BME280;63771;52.580;9.734;2023-04-03T05:49:41;103001.38;;;-1.64;87.62
75192;BME280;63771;52.580;9.734;2023-04-03T05:52:28;103006.75;;;-1.56;87.67
75192;BME280;63771;52.580;9.734;2023-04-03T05:54:54;103006.03;;;-1.46;87.35
75192;BME280;63771;52.580;9.734;2023-04-03T05:57:20;103017.88;;;-1.45;87.22
75192;BME280;63771;52.580;9.734;2023-04-03T05:59:46;103012.44;;;-1.42;87.25
75192;BME280;63771;52.580;9.734;2023-04-03T06:02:16;103019.50;;;-1.30;86.97
75192;BME280;63771;52.580;9.734;2023-04-03T06:04:42;103023.91;;;-1.23;86.71
75192;BME280;63771;52.580;9.734;2023-04-03T06:07:16;103024.53;;;-1.15;86.40
75192;BME280;63771;52.580;9.734;2023-04-03T06:09:42;103019.41;;;-1.05;86.11
75192;BME280;63771;52.580;9.734;2023-04-03T06:12:08;103031.38;;;-0.98;85.86
75192;BME280;63771;52.580;9.734;2023-04-03T06:14:34;103037.53;;;-0.96;86.03
75192;BME280;63771;52.580;9.734;2023-04-03T06:17:00;103024.34;;;-0.80;85.51
75192;BME280;63771;52.580;9.734;2023-04-03T06:19:26;103020.78;;;-0.76;85.22
75192;BME280;63771;52.580;9.734;2023-04-03T06:21:52;103028.38;;;-0.71;85.04
75192;BME280;63771;52.580;9.734;2023-04-03T06:24:17;103032.38;;;-0.62;84.52
75192;BME280;63771;52.580;9.734;2023-04-03T06:26:43;103036.03;;;-0.60;84.87
75192;BME280;63771;52.580;9.734;2023-04-03T06:29:09;103034.22;;;-0.61;84.93
75192;BME280;63771;52.580;9.734;2023-04-03T06:31:34;103040.72;;;-0.51;84.70
75192;BME280;63771;52.580;9.734;2023-04-03T06:34:02;103034.50;;;-0.38;83.78
75192;BME280;63771;52.580;9.734;2023-04-03T06:36:27;103040.75;;;-0.15;82.74
75192;BME280;63771;52.580;9.734;2023-04-03T06:38:54;103042.19;;;-0.06;82.29
75192;BME280;63771;52.580;9.734;2023-04-03T06:41:20;103027.53;;;-0.14;82.43
75192;BME280;63771;52.580;9.734;2023-04-03T06:43:46;103036.34;;;-0.01;82.39
75192;BME280;63771;52.580;9.734;2023-04-03T06:46:20;103040.56;;;0.10;81.79
75192;BME280;63771;52.580;9.734;2023-04-03T06:48:46;103041.88;;;0.02;82.00
75192;BME280;63771;52.580;9.734;2023-04-03T06:53:48;103046.25;;;0.30;81.04
75192;BME280;63771;52.580;9.734;2023-04-03T06:56:14;103049.16;;;0.42;79.97
75192;BME280;63771;52.580;9.734;2023-04-03T06:58:40;103054.66;;;0.45;79.29
75192;BME280;63771;52.580;9.734;2023-04-03T07:01:07;103061.19;;;0.60;79.22
75192;BME280;63771;52.580;9.734;2023-04-03T07:03:34;103059.47;;;0.70;78.21
75192;BME280;63771;52.580;9.734;2023-04-03T07:06:00;103063.66;;;0.81;77.92
75192;BME280;63771;52.580;9.734;2023-04-03T07:08:26;103060.00;;;0.79;77.79
75192;BME280;63771;52.580;9.734;2023-04-03T07:10:51;103061.88;;;0.86;77.80
75192;BME280;63771;52.580;9.734;2023-04-03T07:13:17;103059.47;;;0.97;76.78
75192;BME280;63771;52.580;9.734;2023-04-03T07:15:42;103060.41;;;1.03;76.38
75192;BME280;63771;52.580;9.734;2023-04-03T07:18:07;103063.00;;;1.14;76.10
75192;BME280;63771;52.580;9.734;2023-04-03T07:20:34;103074.13;;;1.32;75.15
75192;BME280;63771;52.580;9.734;2023-04-03T07:22:59;103070.22;;;1.28;75.81
75192;BME280;63771;52.580;9.734;2023-04-03T07:25:27;103073.72;;;1.40;74.54
75192;BME280;63771;52.580;9.734;2023-04-03T07:27:52;103073.28;;;1.42;74.47
75192;BME280;63771;52.580;9.734;2023-04-03T07:30:19;103077.31;;;1.63;73.35
75192;BME280;63771;52.580;9.734;2023-04-03T07:32:44;103078.28;;;1.74;72.33
75192;BME280;63771;52.580;9.734;2023-04-03T07:35:10;103081.53;;;1.85;72.32
75192;BME280;63771;52.580;9.734;2023-04-03T07:37:35;103073.97;;;1.85;72.57
75192;BME280;63771;52.580;9.734;2023-04-03T07:40:01;103072.91;;;1.99;71.54
75192;BME280;63771;52.580;9.734;2023-04-03T07:42:28;103077.06;;;2.10;71.41
75192;BME280;63771;52.580;9.734;2023-04-03T07:44:53;103077.03;;;2.04;71.81
75192;BME280;63771;52.580;9.734;2023-04-03T07:47:19;103083.41;;;2.02;72.72
75192;BME280;63771;52.580;9.734;2023-04-03T07:49:45;103073.19;;;2.18;71.05
75192;BME280;63771;52.580;9.734;2023-04-03T07:52:11;103081.44;;;2.22;71.34
75192;BME280;63771;52.580;9.734;2023-04-03T07:54:36;103070.47;;;2.33;71.40
75192;BME280;63771;52.580;9.734;2023-04-03T07:57:02;103075.56;;;2.50;70.39
75192;BME280;63771;52.580;9.734;2023-04-03T07:59:27;103072.84;;;2.71;68.82
75192;BME280;63771;52.580;9.734;2023-04-03T08:01:53;103075.34;;;2.71;69.04
75192;BME280;63771;52.580;9.734;2023-04-03T08:04:18;103079.03;;;2.73;69.49
75192;BME280;63771;52.580;9.734;2023-04-03T08:06:43;103084.31;;;2.91;68.83
75192;BME280;63771;52.580;9.734;2023-04-03T08:09:09;103074.47;;;2.98;68.63
75192;BME280;63771;52.580;9.734;2023-04-03T08:11:34;103071.72;;;3.02;68.28
75192;BME280;63771;52.580;9.734;2023-04-03T08:14:01;103069.66;;;3.05;68.88
75192;BME280;63771;52.580;9.734;2023-04-03T08:16:27;103069.66;;;3.11;69.20
75192;BME280;63771;52.580;9.734;2023-04-03T08:18:53;103067.81;;;3.16;68.45
75192;BME280;63771;52.580;9.734;2023-04-03T08:21:19;103072.81;;;3.38;67.65
75192;BME280;63771;52.580;9.734;2023-04-03T08:23:48;103070.97;;;3.48;66.82
75192;BME280;63771;52.580;9.734;2023-04-03T08:26:16;103069.81;;;3.57;66.22
75192;BME280;63771;52.580;9.734;2023-04-03T08:28:42;103060.84;;;3.59;64.67
75192;BME280;63771;52.580;9.734;2023-04-03T08:31:11;103060.31;;;3.84;63.90
75192;BME280;63771;52.580;9.734;2023-04-03T08:33:37;103063.97;;;3.92;64.13
75192;BME280;63771;52.580;9.734;2023-04-03T08:36:04;103052.72;;;3.90;64.24
75192;BME280;63771;52.580;9.734;2023-04-03T08:38:30;103055.00;;;3.94;64.21
75192;BME280;63771;52.580;9.734;2023-04-03T08:41:41;103057.03;;;3.97;62.66
75192;BME280;63771;52.580;9.734;2023-04-03T08:49:39;103060.88;;;4.11;61.07
75192;BME280;63771;52.580;9.734;2023-04-03T08:52:11;103052.25;;;3.98;61.59
75192;BME280;63771;52.580;9.734;2023-04-03T08:54:49;103052.28;;;3.87;63.33
75192;BME280;63771;52.580;9.734;2023-04-03T08:57:16;103042.44;;;3.83;63.31
75192;BME280;63771;52.580;9.734;2023-04-03T08:59:42;103051.69;;;4.12;62.43
75192;BME280;63771;52.580;9.734;2023-04-03T09:02:33;103041.03;;;4.31;59.41
75192;BME280;63771;52.580;9.734;2023-04-03T09:05:01;103039.94;;;4.24;60.60
75192;BME280;63771;52.580;9.734;2023-04-03T09:07:42;103039.69;;;4.22;61.89
75192;BME280;63771;52.580;9.734;2023-04-03T09:10:10;103034.19;;;4.25;61.29
75192;BME280;63771;52.580;9.734;2023-04-03T09:12:39;103037.47;;;4.48;58.80
75192;BME280;63771;52.580;9.734;2023-04-03T09:15:21;103048.16;;;4.63;58.49
75192;BME280;63771;52.580;9.734;2023-04-03T09:20:43;103041.81;;;4.84;57.58
75192;BME280;63771;52.580;9.734;2023-04-03T09:23:31;103040.34;;;4.97;57.57
75192;BME280;63771;52.580;9.734;2023-04-03T09:26:09;103033.75;;;5.10;56.38
75192;BME280;63771;52.580;9.734;2023-04-03T09:28:41;103039.59;;;5.28;52.87
75192;BME280;63771;52.580;9.734;2023-04-03T09:31:19;103035.78;;;5.37;54.20
75192;BME280;63771;52.580;9.734;2023-04-03T09:33:46;103034.88;;;5.36;54.88
75192;BME280;63771;52.580;9.734;2023-04-03T09:36:12;103039.59;;;5.46;54.55
75192;BME280;63771;52.580;9.734;2023-04-03T09:38:37;103018.25;;;5.44;54.24
75192;BME280;63771;52.580;9.734;2023-04-03T09:41:14;103026.47;;;5.48;51.63
75192;BME280;63771;52.580;9.734;2023-04-03T09:43:52;103021.19;;;5.47;51.56
75192;BME280;63771;52.580;9.734;2023-04-03T09:48:59;103024.22;;;5.44;50.88
75192;BME280;63771;52.580;9.734;2023-04-03T09:51:26;103022.47;;;5.38;51.16
75192;BME280;63771;52.580;9.734;2023-04-03T09:53:53;103024.16;;;5.26;51.80
75192;BME280;63771;52.580;9.734;2023-04-03T09:56:20;103015.19;;;5.28;51.22
75192;BME280;63771;52.580;9.734;2023-04-03T09:58:49;103010.53;;;5.31;50.96
75192;BME280;63771;52.580;9.734;2023-04-03T10:01:35;103022.53;;;5.27;52.15
75192;BME280;63771;52.580;9.734;2023-04-03T10:04:15;103002.06;;;5.49;49.75
75192;BME280;63771;52.580;9.734;2023-04-03T10:06:47;102997.00;;;5.49;48.51
75192;BME280;63771;52.580;9.734;2023-04-03T10:14:34;103004.59;;;5.67;50.01
75192;BME280;63771;52.580;9.734;2023-04-03T10:17:42;102996.72;;;5.71;48.77
75192;BME280;63771;52.580;9.734;2023-04-03T10:23:02;102983.72;;;5.81;48.02
75192;BME280;63771;52.580;9.734;2023-04-03T10:25:48;102988.59;;;5.80;48.24
75192;BME280;63771;52.580;9.734;2023-04-03T10:38:58;102973.81;;;6.01;46.45
75192;BME280;63771;52.580;9.734;2023-04-03T10:41:39;102967.88;;;5.95;46.79
75192;BME280;63771;52.580;9.734;2023-04-03T10:44:16;102973.00;;;5.89;46.96
75192;BME280;63771;52.580;9.734;2023-04-03T10:47:13;102972.03;;;5.94;45.58
75192;BME280;63771;52.580;9.734;2023-04-03T10:50:15;102965.63;;;5.91;45.97
75192;BME280;63771;52.580;9.734;2023-04-03T10:53:00;102953.56;;;6.01;44.58
75192;BME280;63771;52.580;9.734;2023-04-03T10:55:46;102958.84;;;6.15;44.63
75192;BME280;63771;52.580;9.734;2023-04-03T10:58:56;102952.94;;;6.40;42.62
75192;BME280;63771;52.580;9.734;2023-04-03T11:01:27;102944.75;;;6.48;42.50
75192;BME280;63771;52.580;9.734;2023-04-03T11:03:58;102952.97;;;6.53;41.70
75192;BME280;63771;52.580;9.734;2023-04-03T11:06:26;102940.06;;;6.51;43.54
75192;BME280;63771;52.580;9.734;2023-04-03T11:09:00;102936.31;;;6.68;42.37
75192;BME280;63771;52.580;9.734;2023-04-03T11:11:36;102925.91;;;6.85;44.11
75192;BME280;63771;52.580;9.734;2023-04-03T11:14:21;102934.19;;;7.09;43.68
75192;BME280;63771;52.580;9.734;2023-04-03T11:17:08;102924.22;;;7.23;45.87
75192;BME280;63771;52.580;9.734;2023-04-03T11:24:36;102919.47;;;7.52;40.38
75192;BME280;63771;52.580;9.734;2023-04-03T11:27:05;102917.75;;;7.45;40.69
75192;BME280;63771;52.580;9.734;2023-04-03T11:29:38;102917.63;;;7.31;41.31
75192;BME280;63771;52.580;9.734;2023-04-03T11:34:48;102929.31;;;6.98;42.56
75192;BME280;63771;52.580;9.734;2023-04-03T11:39:57;102918.16;;;6.77;42.32
75192;BME280;63771;52.580;9.734;2023-04-03T11:42:39;102921.03;;;6.73;42.38
75192;BME280;63771;52.580;9.734;2023-04-03T11:47:54;102914.72;;;6.64;41.99
75192;BME280;63771;52.580;9.734;2023-04-03T12:13:36;102900.34;;;7.28;42.00
75192;BME280;63771;52.580;9.734;2023-04-03T12:16:04;102898.09;;;7.37;43.14
75192;BME280;63771;52.580;9.734;2023-04-03T12:21:14;102888.22;;;7.85;41.65
75192;BME280;63771;52.580;9.734;2023-04-03T12:24:23;102883.06;;;7.98;39.88
75192;BME280;63771;52.580;9.734;2023-04-03T12:40:41;102876.63;;;7.88;39.83
75192;BME280;63771;52.580;9.734;2023-04-03T12:48:38;102874.63;;;7.32;41.50
75192;BME280;63771;52.580;9.734;2023-04-03T12:51:05;102865.75;;;7.16;41.86
75192;BME280;63771;52.580;9.734;2023-04-03T12:53:33;102864.97;;;7.10;42.13
75192;BME280;63771;52.580;9.734;2023-04-03T12:56:26;102859.06;;;7.04;42.02
75192;BME280;63771;52.580;9.734;2023-04-03T12:58:54;102858.13;;;7.16;42.24
75192;BME280;63771;52.580;9.734;2023-04-03T13:01:22;102859.00;;;7.29;40.90
75192;BME280;63771;52.580;9.734;2023-04-03T13:03:51;102854.25;;;7.45;39.41
75192;BME280;63771;52.580;9.734;2023-04-03T13:06:21;102844.69;;;7.50;39.96
75192;BME280;63771;52.580;9.734;2023-04-03T13:08:54;102855.78;;;7.70;40.10
75192;BME280;63771;52.580;9.734;2023-04-03T13:11:22;102839.09;;;7.92;39.13
75192;BME280;63771;52.580;9.734;2023-04-03T13:13:59;102833.88;;;7.98;39.21
75192;BME280;63771;52.580;9.734;2023-04-03T13:16:25;102839.19;;;8.06;39.33
75192;BME280;63771;52.580;9.734;2023-04-03T13:18:52;102832.94;;;8.17;39.94
75192;BME280;63771;52.580;9.734;2023-04-03T13:21:36;102837.88;;;8.23;40.16
75192;BME280;63771;52.580;9.734;2023-04-03T13:24:02;102837.34;;;8.25;38.88
75192;BME280;63771;52.580;9.734;2023-04-03T13:26:31;102831.34;;;8.25;37.97
75192;BME280;63771;52.580;9.734;2023-04-03T13:29:03;102818.06;;;8.20;38.93
75192;BME280;63771;52.580;9.734;2023-04-03T13:31:32;102819.72;;;8.27;38.75
75192;BME280;63771;52.580;9.734;2023-04-03T13:34:13;102821.56;;;8.28;40.49
75192;BME280;63771;52.580;9.734;2023-04-03T13:39:30;102809.25;;;8.65;38.50
75192;BME280;63771;52.580;9.734;2023-04-03T13:42:01;102812.34;;;8.70;38.39
75192;BME280;63771;52.580;9.734;2023-04-03T13:44:36;102805.63;;;8.63;38.46
75192;BME280;63771;52.580;9.734;2023-04-03T13:49:39;102809.28;;;8.38;37.64
75192;BME280;63771;52.580;9.734;2023-04-03T13:52:25;102806.59;;;8.17;38.32
75192;BME280;63771;52.580;9.734;2023-04-03T13:54:55;102806.03;;;7.92;38.71
75192;BME280;63771;52.580;9.734;2023-04-03T13:57:21;102805.09;;;7.84;39.62
75192;BME280;63771;52.580;9.734;2023-04-03T13:59:46;102807.44;;;7.83;39.19
75192;BME280;63771;52.580;9.734;2023-04-03T14:02:28;102798.19;;;7.83;38.84
75192;BME280;63771;52.580;9.734;2023-04-03T14:04:58;102799.47;;;7.87;39.87
75192;BME280;63771;52.580;9.734;2023-04-03T14:07:27;102793.25;;;7.78;39.55
75192;BME280;63771;52.580;9.734;2023-04-03T14:09:53;102797.03;;;7.74;41.07
75192;BME280;63771;52.580;9.734;2023-04-03T14:12:33;102789.09;;;7.78;41.10
75192;BME280;63771;52.580;9.734;2023-04-03T14:15:04;102785.09;;;7.80;40.49
75192;BME280;63771;52.580;9.734;2023-04-03T14:17:30;102781.66;;;7.80;40.89
75192;BME280;63771;52.580;9.734;2023-04-03T14:19:57;102784.66;;;7.97;38.83
75192;BME280;63771;52.580;9.734;2023-04-03T14:22:29;102779.97;;;8.00;39.97
75192;BME280;63771;52.580;9.734;2023-04-03T14:24:55;102767.56;;;8.23;38.81
75192;BME280;63771;52.580;9.734;2023-04-03T14:27:28;102768.31;;;8.22;39.89
75192;BME280;63771;52.580;9.734;2023-04-03T14:29:55;102769.91;;;8.42;38.62
75192;BME280;63771;52.580;9.734;2023-04-03T14:32:22;102780.25;;;8.43;38.61
75192;BME280;63771;52.580;9.734;2023-04-03T14:34:49;102776.06;;;8.36;38.36
75192;BME280;63771;52.580;9.734;2023-04-03T14:37:18;102777.59;;;8.29;38.26
75192;BME280;63771;52.580;9.734;2023-04-03T14:39:44;102766.81;;;8.17;37.59